イエローナイフ の空港の天気 - METARとTAF

イエローナイフ空港 ( CYZF / YZF ) - カナダ ノースウエスト準州イエローナイフ
飛行場実況気象(Metar)
観測時間12/15 05:00 MST (12/15 12:00 UTC)
風向・風速北 3m/s
視程10km以上
天気現象弱い雪
全天を覆う雲 雲底高度 2440m
気温-25℃
湿度76%
気圧1007.5hPa
METARCYZF 151200Z 36006KT 15SM -SN OVC080 M25/M28 A2966 RMK AC8 FROIN CIG RAG SLP075
過去の天気等 Google飛行場航空写真 Wunderground天気予報

過去48時間のMETAR

飛行場予報(TAF)
発表時間: 12/15 04:38 MST (12/15 11:38 UTC)
予報対象時間: 15日5時 MST ~ 16日5時 MST
風向・風速北 3m/s
視程10km以上
天気現象弱い雪
全天を覆う雲 雲底高度 2440m
15日5時 MST ~ 15日8時 MST に一時的に
視程8050m
天気現象弱い雪
全天の8割程度の雲 雲底高度 910m
全天を覆う雲 雲底高度 1520m
15日8時 MST から
風向・風速北 5m/s
視程10km以上
全天の4割程度の雲 雲底高度 1520m
全天の8割程度の雲 雲底高度 2440m
15日14時 MST から
風向・風速北 4m/s
視程10km以上
全天の8割程度の雲 雲底高度 2440m
15日17時 MST から
風向・風速北 3m/s
視程10km以上
少しの雲 雲底高度 2440m
全天の4割程度の雲 雲底高度 7320m
15日18時 MST ~ 15日20時 MST に徐々に
風向・風速不定 2m/s
TAF CYZF 151138Z 1512/1612 36005KT P6SM -SN OVC080
TEMPO 1512/1515 5SM -SN BKN030 OVC050
FM151500 36010KT P6SM SCT050 BKN080
FM152100 35008KT P6SM BKN080
FM160000 35005KT P6SM FEW080 SCT240
BECMG 1601/1603 VRB03KT RMK NXT FCST BY 151800Z